sensor_id;sensor_type;location;lat;lon;timestamp;pressure;altitude;pressure_sealevel;temperature;humidity
55679;BME280;41573;51.446;-2.018;2022-11-14T00:02:15;100360.88;;;11.63;100.00
55679;BME280;41573;51.446;-2.018;2022-11-14T00:04:44;100359.88;;;11.64;100.00
55679;BME280;41573;51.446;-2.018;2022-11-14T00:07:09;100351.88;;;11.64;100.00
55679;BME280;41573;51.446;-2.018;2022-11-14T00:09:34;100347.44;;;11.64;100.00
55679;BME280;41573;51.446;-2.018;2022-11-14T00:12:02;100345.59;;;11.65;100.00
55679;BME280;41573;51.446;-2.018;2022-11-14T00:14:28;100344.66;;;11.66;100.00
55679;BME280;41573;51.446;-2.018;2022-11-14T00:16:53;100343.50;;;11.70;100.00
55679;BME280;41573;51.446;-2.018;2022-11-14T00:19:18;100331.94;;;11.69;100.00
55679;BME280;41573;51.446;-2.018;2022-11-14T00:21:44;100332.81;;;11.70;100.00
55679;BME280;41573;51.446;-2.018;2022-11-14T00:24:09;100323.84;;;11.71;100.00
55679;BME280;41573;51.446;-2.018;2022-11-14T00:26:34;100334.38;;;11.72;100.00
55679;BME280;41573;51.446;-2.018;2022-11-14T00:29:00;100329.94;;;11.73;100.00
55679;BME280;41573;51.446;-2.018;2022-11-14T00:31:25;100328.00;;;11.75;100.00
55679;BME280;41573;51.446;-2.018;2022-11-14T00:33:50;100333.22;;;11.77;100.00
55679;BME280;41573;51.446;-2.018;2022-11-14T00:36:15;100329.59;;;11.78;100.00
55679;BME280;41573;51.446;-2.018;2022-11-14T00:38:41;100340.16;;;11.79;100.00
55679;BME280;41573;51.446;-2.018;2022-11-14T00:41:06;100343.59;;;11.81;100.00
55679;BME280;41573;51.446;-2.018;2022-11-14T00:43:31;100327.59;;;11.81;100.00
55679;BME280;41573;51.446;-2.018;2022-11-14T00:45:56;100328.44;;;11.82;100.00
55679;BME280;41573;51.446;-2.018;2022-11-14T00:48:22;100331.84;;;11.84;100.00
55679;BME280;41573;51.446;-2.018;2022-11-14T00:50:47;100337.09;;;11.85;100.00
55679;BME280;41573;51.446;-2.018;2022-11-14T00:53:13;100338.78;;;11.86;100.00
55679;BME280;41573;51.446;-2.018;2022-11-14T00:55:38;100339.53;;;11.88;100.00
55679;BME280;41573;51.446;-2.018;2022-11-14T00:58:03;100329.72;;;11.89;100.00
55679;BME280;41573;51.446;-2.018;2022-11-14T01:00:29;100331.44;;;11.90;100.00
55679;BME280;41573;51.446;-2.018;2022-11-14T01:02:54;100334.00;;;11.92;100.00
55679;BME280;41573;51.446;-2.018;2022-11-14T01:05:23;100329.41;;;11.94;100.00
55679;BME280;41573;51.446;-2.018;2022-11-14T01:07:48;100322.28;;;11.94;100.00
55679;BME280;41573;51.446;-2.018;2022-11-14T01:10:14;100322.16;;;11.96;100.00
55679;BME280;41573;51.446;-2.018;2022-11-14T01:12:39;100323.84;;;11.97;100.00
55679;BME280;41573;51.446;-2.018;2022-11-14T01:15:05;100307.78;;;11.98;100.00
55679;BME280;41573;51.446;-2.018;2022-11-14T01:17:30;100305.81;;;12.00;100.00
55679;BME280;41573;51.446;-2.018;2022-11-14T01:19:55;100307.66;;;12.00;100.00
55679;BME280;41573;51.446;-2.018;2022-11-14T01:22:21;100300.59;;;11.99;100.00
55679;BME280;41573;51.446;-2.018;2022-11-14T01:24:46;100300.50;;;12.00;100.00
55679;BME280;41573;51.446;-2.018;2022-11-14T01:27:11;100299.66;;;12.00;100.00
55679;BME280;41573;51.446;-2.018;2022-11-14T01:29:36;100299.53;;;12.01;100.00
55679;BME280;41573;51.446;-2.018;2022-11-14T01:32:02;100295.25;;;11.99;100.00
55679;BME280;41573;51.446;-2.018;2022-11-14T01:34:27;100294.31;;;12.00;100.00
55679;BME280;41573;51.446;-2.018;2022-11-14T01:36:53;100287.16;;;12.00;100.00
55679;BME280;41573;51.446;-2.018;2022-11-14T01:39:18;100283.63;;;12.00;100.00
55679;BME280;41573;51.446;-2.018;2022-11-14T01:41:44;100279.97;;;12.01;100.00
55679;BME280;41573;51.446;-2.018;2022-11-14T01:44:16;100277.19;;;12.02;100.00
55679;BME280;41573;51.446;-2.018;2022-11-14T01:46:42;100271.97;;;12.01;100.00
55679;BME280;41573;51.446;-2.018;2022-11-14T01:51:36;100277.31;;;12.01;100.00
55679;BME280;41573;51.446;-2.018;2022-11-14T01:54:04;100265.91;;;11.99;100.00
55679;BME280;41573;51.446;-2.018;2022-11-14T01:56:36;100265.69;;;12.02;100.00
55679;BME280;41573;51.446;-2.018;2022-11-14T01:59:04;100270.28;;;12.00;100.00
55679;BME280;41573;51.446;-2.018;2022-11-14T02:01:31;100257.78;;;12.00;100.00
55679;BME280;41573;51.446;-2.018;2022-11-14T02:03:58;100267.63;;;12.00;100.00
55679;BME280;41573;51.446;-2.018;2022-11-14T02:06:24;100260.56;;;11.99;100.00
55679;BME280;41573;51.446;-2.018;2022-11-14T02:08:51;100273.91;;;11.99;100.00
55679;BME280;41573;51.446;-2.018;2022-11-14T02:11:17;100271.25;;;11.99;100.00
55679;BME280;41573;51.446;-2.018;2022-11-14T02:13:43;100265.78;;;12.00;100.00
55679;BME280;41573;51.446;-2.018;2022-11-14T02:16:08;100267.41;;;12.03;100.00
55679;BME280;41573;51.446;-2.018;2022-11-14T02:18:33;100259.41;;;12.03;100.00
55679;BME280;41573;51.446;-2.018;2022-11-14T02:20:58;100258.31;;;12.05;100.00
55679;BME280;41573;51.446;-2.018;2022-11-14T02:23:29;100252.88;;;12.07;100.00
55679;BME280;41573;51.446;-2.018;2022-11-14T02:25:54;100246.78;;;12.05;100.00
55679;BME280;41573;51.446;-2.018;2022-11-14T02:28:20;100249.44;;;12.05;100.00
55679;BME280;41573;51.446;-2.018;2022-11-14T02:30:46;100249.44;;;12.05;100.00
55679;BME280;41573;51.446;-2.018;2022-11-14T02:33:11;100240.47;;;12.06;100.00
55679;BME280;41573;51.446;-2.018;2022-11-14T02:35:37;100237.09;;;12.04;100.00
55679;BME280;41573;51.446;-2.018;2022-11-14T02:38:02;100239.84;;;12.02;100.00
55679;BME280;41573;51.446;-2.018;2022-11-14T02:40:27;100247.00;;;12.02;100.00
55679;BME280;41573;51.446;-2.018;2022-11-14T02:42:53;100235.38;;;12.03;100.00
55679;BME280;41573;51.446;-2.018;2022-11-14T02:45:18;100232.81;;;12.01;100.00
55679;BME280;41573;51.446;-2.018;2022-11-14T02:47:44;100233.66;;;12.02;100.00
55679;BME280;41573;51.446;-2.018;2022-11-14T02:50:10;100231.75;;;12.04;100.00
55679;BME280;41573;51.446;-2.018;2022-11-14T02:52:35;100228.09;;;12.05;100.00
55679;BME280;41573;51.446;-2.018;2022-11-14T02:55:00;100222.88;;;12.03;100.00
55679;BME280;41573;51.446;-2.018;2022-11-14T02:57:25;100224.69;;;12.03;100.00
55679;BME280;41573;51.446;-2.018;2022-11-14T02:59:51;100218.47;;;12.02;100.00
55679;BME280;41573;51.446;-2.018;2022-11-14T03:02:16;100218.59;;;12.01;100.00
55679;BME280;41573;51.446;-2.018;2022-11-14T03:04:41;100215.09;;;12.00;100.00
55679;BME280;41573;51.446;-2.018;2022-11-14T03:07:06;100215.09;;;12.00;100.00
55679;BME280;41573;51.446;-2.018;2022-11-14T03:09:32;100214.03;;;12.03;100.00
55679;BME280;41573;51.446;-2.018;2022-11-14T03:11:57;100206.84;;;12.03;100.00
55679;BME280;41573;51.446;-2.018;2022-11-14T03:14:22;100208.91;;;12.00;100.00
55679;BME280;41573;51.446;-2.018;2022-11-14T03:16:47;100215.81;;;12.02;100.00
55679;BME280;41573;51.446;-2.018;2022-11-14T03:19:13;100207.09;;;12.00;100.00
55679;BME280;41573;51.446;-2.018;2022-11-14T03:21:38;100193.97;;;11.97;100.00
55679;BME280;41573;51.446;-2.018;2022-11-14T03:24:03;100204.53;;;11.99;100.00
55679;BME280;41573;51.446;-2.018;2022-11-14T03:26:29;100195.69;;;11.98;100.00
55679;BME280;41573;51.446;-2.018;2022-11-14T03:28:54;100202.09;;;11.96;100.00
55679;BME280;41573;51.446;-2.018;2022-11-14T03:31:19;100196.75;;;11.96;100.00
55679;BME280;41573;51.446;-2.018;2022-11-14T03:33:45;100196.75;;;11.96;100.00
55679;BME280;41573;51.446;-2.018;2022-11-14T03:36:10;100193.22;;;11.95;100.00
55679;BME280;41573;51.446;-2.018;2022-11-14T03:38:35;100191.19;;;11.99;100.00
55679;BME280;41573;51.446;-2.018;2022-11-14T03:41:01;100195.56;;;12.00;100.00
55679;BME280;41573;51.446;-2.018;2022-11-14T03:43:29;100194.81;;;11.98;100.00
55679;BME280;41573;51.446;-2.018;2022-11-14T03:45:56;100196.75;;;11.96;100.00
55679;BME280;41573;51.446;-2.018;2022-11-14T03:48:21;100182.53;;;11.95;100.00
55679;BME280;41573;51.446;-2.018;2022-11-14T03:50:47;100185.09;;;11.97;100.00
55679;BME280;41573;51.446;-2.018;2022-11-14T03:53:12;100186.06;;;11.96;100.00
55679;BME280;41573;51.446;-2.018;2022-11-14T03:55:37;100187.34;;;12.03;100.00
55679;BME280;41573;51.446;-2.018;2022-11-14T03:58:04;100194.56;;;12.01;100.00
55679;BME280;41573;51.446;-2.018;2022-11-14T04:00:29;100196.28;;;12.02;100.00
55679;BME280;41573;51.446;-2.018;2022-11-14T04:02:55;100194.38;;;12.04;100.00
55679;BME280;41573;51.446;-2.018;2022-11-14T04:05:21;100200.56;;;12.04;100.00
55679;BME280;41573;51.446;-2.018;2022-11-14T04:07:46;100205.91;;;12.04;100.00
55679;BME280;41573;51.446;-2.018;2022-11-14T04:10:11;100207.63;;;12.05;100.00
55679;BME280;41573;51.446;-2.018;2022-11-14T04:12:37;100212.94;;;12.05;100.00
55679;BME280;41573;51.446;-2.018;2022-11-14T04:15:02;100210.28;;;12.05;100.00
55679;BME280;41573;51.446;-2.018;2022-11-14T04:17:28;100215.50;;;12.07;100.00
55679;BME280;41573;51.446;-2.018;2022-11-14T04:19:53;100214.63;;;12.06;100.00
55679;BME280;41573;51.446;-2.018;2022-11-14T04:22:18;100219.84;;;12.08;100.00
55679;BME280;41573;51.446;-2.018;2022-11-14T04:24:44;100220.72;;;12.09;100.00
55679;BME280;41573;51.446;-2.018;2022-11-14T04:27:09;100221.47;;;12.11;100.00
55679;BME280;41573;51.446;-2.018;2022-11-14T04:29:34;100220.63;;;12.10;100.00
55679;BME280;41573;51.446;-2.018;2022-11-14T04:31:59;100214.31;;;12.11;100.00
55679;BME280;41573;51.446;-2.018;2022-11-14T04:34:25;100213.44;;;12.11;100.00
55679;BME280;41573;51.446;-2.018;2022-11-14T04:36:50;100205.34;;;12.12;100.00
55679;BME280;41573;51.446;-2.018;2022-11-14T04:39:16;100207.03;;;12.13;100.00
55679;BME280;41573;51.446;-2.018;2022-11-14T04:41:41;100207.88;;;12.14;100.00
55679;BME280;41573;51.446;-2.018;2022-11-14T04:44:06;100206.09;;;12.14;100.00
55679;BME280;41573;51.446;-2.018;2022-11-14T04:46:31;100192.75;;;12.14;100.00
55679;BME280;41573;51.446;-2.018;2022-11-14T04:48:57;100186.44;;;12.15;100.00
55679;BME280;41573;51.446;-2.018;2022-11-14T04:51:22;100180.22;;;12.15;100.00
55679;BME280;41573;51.446;-2.018;2022-11-14T04:53:47;100175.78;;;12.15;100.00
55679;BME280;41573;51.446;-2.018;2022-11-14T04:56:12;100166.03;;;12.14;100.00
55679;BME280;41573;51.446;-2.018;2022-11-14T04:58:38;100152.69;;;12.14;100.00
55679;BME280;41573;51.446;-2.018;2022-11-14T05:01:07;100142.97;;;12.13;100.00
55679;BME280;41573;51.446;-2.018;2022-11-14T05:03:32;100134.84;;;12.15;100.00
55679;BME280;41573;51.446;-2.018;2022-11-14T05:06:01;100128.69;;;12.14;100.00
55679;BME280;41573;51.446;-2.018;2022-11-14T05:08:27;100130.47;;;12.14;100.00
55679;BME280;41573;51.446;-2.018;2022-11-14T05:10:52;100133.25;;;12.12;100.00
55679;BME280;41573;51.446;-2.018;2022-11-14T05:13:17;100135.94;;;12.12;100.00
55679;BME280;41573;51.446;-2.018;2022-11-14T05:15:44;100132.53;;;12.10;100.00
55679;BME280;41573;51.446;-2.018;2022-11-14T05:18:09;100130.81;;;12.09;100.00
55679;BME280;41573;51.446;-2.018;2022-11-14T05:20:34;100136.16;;;12.09;100.00
55679;BME280;41573;51.446;-2.018;2022-11-14T05:23:00;100137.13;;;12.08;100.00
55679;BME280;41573;51.446;-2.018;2022-11-14T05:25:25;100139.78;;;12.08;100.00
55679;BME280;41573;51.446;-2.018;2022-11-14T05:27:50;100138.94;;;12.07;100.00
55679;BME280;41573;51.446;-2.018;2022-11-14T05:30:15;100137.13;;;12.08;100.00
55679;BME280;41573;51.446;-2.018;2022-11-14T05:32:41;100132.75;;;12.07;100.00
55679;BME280;41573;51.446;-2.018;2022-11-14T05:35:06;100119.53;;;12.05;100.00
55679;BME280;41573;51.446;-2.018;2022-11-14T05:37:32;100121.09;;;12.08;100.00
55679;BME280;41573;51.446;-2.018;2022-11-14T05:39:57;100127.31;;;12.09;100.00
55679;BME280;41573;51.446;-2.018;2022-11-14T05:42:23;100124.53;;;12.10;100.00
55679;BME280;41573;51.446;-2.018;2022-11-14T05:44:48;100126.25;;;12.11;100.00
55679;BME280;41573;51.446;-2.018;2022-11-14T05:47:13;100130.72;;;12.11;100.00
55679;BME280;41573;51.446;-2.018;2022-11-14T05:49:38;100123.56;;;12.11;100.00
55679;BME280;41573;51.446;-2.018;2022-11-14T05:52:04;100122.59;;;12.12;100.00
55679;BME280;41573;51.446;-2.018;2022-11-14T05:54:29;100114.56;;;12.12;100.00
55679;BME280;41573;51.446;-2.018;2022-11-14T05:56:54;100118.97;;;12.13;100.00
55679;BME280;41573;51.446;-2.018;2022-11-14T05:59:19;100111.91;;;12.12;100.00
55679;BME280;41573;51.446;-2.018;2022-11-14T06:01:45;100107.44;;;12.13;100.00
55679;BME280;41573;51.446;-2.018;2022-11-14T06:04:10;100113.72;;;12.12;100.00
55679;BME280;41573;51.446;-2.018;2022-11-14T06:06:37;100126.25;;;12.11;100.00
55679;BME280;41573;51.446;-2.018;2022-11-14T06:09:02;100120.91;;;12.11;100.00
55679;BME280;41573;51.446;-2.018;2022-11-14T06:11:27;100124.53;;;12.10;100.00
55679;BME280;41573;51.446;-2.018;2022-11-14T06:13:52;100124.53;;;12.10;100.00
55679;BME280;41573;51.446;-2.018;2022-11-14T06:16:18;100128.91;;;12.11;100.00
55679;BME280;41573;51.446;-2.018;2022-11-14T06:18:44;100127.91;;;12.12;100.00
55679;BME280;41573;51.446;-2.018;2022-11-14T06:21:13;100136.91;;;12.11;100.00
55679;BME280;41573;51.446;-2.018;2022-11-14T06:23:39;100133.38;;;12.11;100.00
55679;BME280;41573;51.446;-2.018;2022-11-14T06:26:05;100135.22;;;12.10;100.00
55679;BME280;41573;51.446;-2.018;2022-11-14T06:28:31;100141.38;;;12.11;100.00
55679;BME280;41573;51.446;-2.018;2022-11-14T06:30:57;100142.25;;;12.11;100.00
55679;BME280;41573;51.446;-2.018;2022-11-14T06:33:22;100136.91;;;12.11;100.00
55679;BME280;41573;51.446;-2.018;2022-11-14T06:35:48;100138.59;;;12.12;100.00
55679;BME280;41573;51.446;-2.018;2022-11-14T06:38:13;100140.31;;;12.13;100.00
55679;BME280;41573;51.446;-2.018;2022-11-14T06:40:38;100133.91;;;12.16;100.00
55679;BME280;41573;51.446;-2.018;2022-11-14T06:43:03;100129.16;;;12.19;100.00
55679;BME280;41573;51.446;-2.018;2022-11-14T06:45:29;100127.50;;;12.18;100.00
55679;BME280;41573;51.446;-2.018;2022-11-14T06:47:57;100131.75;;;12.21;100.00
55679;BME280;41573;51.446;-2.018;2022-11-14T06:50:22;100119.38;;;12.20;100.00
55679;BME280;41573;51.446;-2.018;2022-11-14T06:52:47;100116.69;;;12.20;100.00
55679;BME280;41573;51.446;-2.018;2022-11-14T06:55:12;100119.38;;;12.20;100.00
55679;BME280;41573;51.446;-2.018;2022-11-14T06:57:38;100115.94;;;12.18;100.00
55679;BME280;41573;51.446;-2.018;2022-11-14T07:00:04;100109.03;;;12.15;100.00
55679;BME280;41573;51.446;-2.018;2022-11-14T07:02:31;100108.28;;;12.13;100.00
55679;BME280;41573;51.446;-2.018;2022-11-14T07:04:56;100106.81;;;12.09;100.00
55679;BME280;41573;51.446;-2.018;2022-11-14T07:07:22;100110.44;;;12.08;100.00
55679;BME280;41573;51.446;-2.018;2022-11-14T07:09:47;100105.09;;;12.08;100.00
55679;BME280;41573;51.446;-2.018;2022-11-14T07:12:13;100108.75;;;12.07;100.00
55679;BME280;41573;51.446;-2.018;2022-11-14T07:14:38;100098.19;;;12.05;100.00
55679;BME280;41573;51.446;-2.018;2022-11-14T07:17:03;100102.66;;;12.05;100.00
55679;BME280;41573;51.446;-2.018;2022-11-14T07:19:28;100094.88;;;12.02;100.00
55679;BME280;41573;51.446;-2.018;2022-11-14T07:21:54;100095.84;;;12.01;100.00
55679;BME280;41573;51.446;-2.018;2022-11-14T07:24:19;100109.19;;;12.01;100.00
55679;BME280;41573;51.446;-2.018;2022-11-14T07:26:44;100102.16;;;12.00;100.00
55679;BME280;41573;51.446;-2.018;2022-11-14T07:29:10;100108.34;;;12.00;100.00
55679;BME280;41573;51.446;-2.018;2022-11-14T07:31:35;100104.84;;;12.00;100.00
55679;BME280;41573;51.446;-2.018;2022-11-14T07:34:00;100103.00;;;12.00;100.00
55679;BME280;41573;51.446;-2.018;2022-11-14T07:36:25;100109.41;;;11.98;100.00
55679;BME280;41573;51.446;-2.018;2022-11-14T07:38:51;100109.41;;;11.98;100.00
55679;BME280;41573;51.446;-2.018;2022-11-14T07:41:16;100106.84;;;11.96;100.00
55679;BME280;41573;51.446;-2.018;2022-11-14T07:43:42;100100.69;;;11.96;100.00
55679;BME280;41573;51.446;-2.018;2022-11-14T07:46:09;100106.00;;;11.96;100.00
55679;BME280;41573;51.446;-2.018;2022-11-14T07:48:35;100104.31;;;11.95;100.00
55679;BME280;41573;51.446;-2.018;2022-11-14T07:51:00;100102.59;;;11.94;100.00
55679;BME280;41573;51.446;-2.018;2022-11-14T07:53:26;100104.31;;;11.95;100.00
55679;BME280;41573;51.446;-2.018;2022-11-14T07:55:52;100098.13;;;11.94;100.00
55679;BME280;41573;51.446;-2.018;2022-11-14T07:58:17;100101.53;;;11.96;100.00
55679;BME280;41573;51.446;-2.018;2022-11-14T08:00:42;100106.75;;;11.98;100.00
55679;BME280;41573;51.446;-2.018;2022-11-14T08:03:08;100104.84;;;12.00;100.00
55679;BME280;41573;51.446;-2.018;2022-11-14T08:05:33;100100.34;;;12.00;100.00
55679;BME280;41573;51.446;-2.018;2022-11-14T08:07:59;100096.81;;;12.00;100.00
55679;BME280;41573;51.446;-2.018;2022-11-14T08:10:24;100093.16;;;12.01;100.00
55679;BME280;41573;51.446;-2.018;2022-11-14T08:12:59;100090.50;;;12.01;100.00
55679;BME280;41573;51.446;-2.018;2022-11-14T08:15:24;100089.53;;;12.02;100.00
55679;BME280;41573;51.446;-2.018;2022-11-14T08:17:50;100079.72;;;12.02;100.00
55679;BME280;41573;51.446;-2.018;2022-11-14T08:20:15;100083.25;;;12.03;100.00
55679;BME280;41573;51.446;-2.018;2022-11-14T08:22:40;100081.53;;;12.02;100.00
55679;BME280;41573;51.446;-2.018;2022-11-14T08:25:05;100081.53;;;12.02;100.00
55679;BME280;41573;51.446;-2.018;2022-11-14T08:27:31;100085.16;;;12.01;100.00
55679;BME280;41573;51.446;-2.018;2022-11-14T08:29:56;100093.16;;;12.01;100.00
55679;BME280;41573;51.446;-2.018;2022-11-14T08:32:21;100086.75;;;12.03;100.00
55679;BME280;41573;51.446;-2.018;2022-11-14T08:34:46;100087.63;;;12.04;100.00
55679;BME280;41573;51.446;-2.018;2022-11-14T08:37:12;100084.72;;;12.07;100.00
55679;BME280;41573;51.446;-2.018;2022-11-14T08:39:37;100090.91;;;12.07;100.00
55679;BME280;41573;51.446;-2.018;2022-11-14T08:42:02;100082.06;;;12.07;100.00
55679;BME280;41573;51.446;-2.018;2022-11-14T08:44:27;100085.44;;;12.09;100.00
55679;BME280;41573;51.446;-2.018;2022-11-14T08:46:53;100094.41;;;12.08;100.00
55679;BME280;41573;51.446;-2.018;2022-11-14T08:49:18;100106.56;;;12.12;100.00
55679;BME280;41573;51.446;-2.018;2022-11-14T08:51:43;100100.38;;;12.12;100.00
55679;BME280;41573;51.446;-2.018;2022-11-14T08:54:09;100101.09;;;12.14;100.00
55679;BME280;41573;51.446;-2.018;2022-11-14T08:56:34;100098.78;;;12.09;100.00
55679;BME280;41573;51.446;-2.018;2022-11-14T08:59:01;100096.13;;;12.09;100.00
55679;BME280;41573;51.446;-2.018;2022-11-14T09:01:27;100085.44;;;12.09;100.00
55679;BME280;41573;51.446;-2.018;2022-11-14T09:03:52;100080.88;;;12.11;100.00
55679;BME280;41573;51.446;-2.018;2022-11-14T09:06:17;100082.22;;;12.17;100.00
55679;BME280;41573;51.446;-2.018;2022-11-14T09:08:43;100082.34;;;12.15;100.00
55679;BME280;41573;51.446;-2.018;2022-11-14T09:11:08;100074.34;;;12.15;100.00
55679;BME280;41573;51.446;-2.018;2022-11-14T09:13:33;100086.00;;;12.26;100.00
55679;BME280;41573;51.446;-2.018;2022-11-14T09:15:58;100075.56;;;12.22;100.00
55679;BME280;41573;51.446;-2.018;2022-11-14T09:18:24;100060.16;;;12.26;100.00
55679;BME280;41573;51.446;-2.018;2022-11-14T09:20:49;100063.59;;;12.28;100.00
55679;BME280;41573;51.446;-2.018;2022-11-14T09:23:14;100061.91;;;12.38;100.00
55679;BME280;41573;51.446;-2.018;2022-11-14T09:25:39;100060.06;;;12.39;100.00
55679;BME280;41573;51.446;-2.018;2022-11-14T09:28:05;100053.91;;;12.38;100.00
55679;BME280;41573;51.446;-2.018;2022-11-14T09:30:31;100048.44;;;12.40;100.00
55679;BME280;41573;51.446;-2.018;2022-11-14T09:32:59;100045.75;;;12.40;100.00
55679;BME280;41573;51.446;-2.018;2022-11-14T09:35:25;100043.09;;;12.40;100.00
55679;BME280;41573;51.446;-2.018;2022-11-14T09:37:57;100037.63;;;12.41;100.00
55679;BME280;41573;51.446;-2.018;2022-11-14T09:40:23;100040.19;;;12.43;100.00
55679;BME280;41573;51.446;-2.018;2022-11-14T09:45:28;100032.16;;;12.43;100.00
55679;BME280;41573;51.446;-2.018;2022-11-14T09:47:55;100024.78;;;12.47;100.00
55679;BME280;41573;51.446;-2.018;2022-11-14T09:50:25;100025.38;;;12.50;100.00
55679;BME280;41573;51.446;-2.018;2022-11-14T09:52:56;100026.50;;;12.59;100.00
55679;BME280;41573;51.446;-2.018;2022-11-14T09:55:26;100019.34;;;12.59;100.00
55679;BME280;41573;51.446;-2.018;2022-11-14T09:57:53;100013.75;;;12.63;100.00
55679;BME280;41573;51.446;-2.018;2022-11-14T10:00:20;100006.34;;;12.66;100.00
55679;BME280;41573;51.446;-2.018;2022-11-14T10:15:44;99988.84;;;12.85;100.00
55679;BME280;41573;51.446;-2.018;2022-11-14T10:18:14;99990.19;;;12.90;100.00
55679;BME280;41573;51.446;-2.018;2022-11-14T10:20:47;99980.25;;;12.92;100.00
55679;BME280;41573;51.446;-2.018;2022-11-14T10:28:15;99970.88;;;12.98;100.00
55679;BME280;41573;51.446;-2.018;2022-11-14T10:30:47;99970.25;;;13.06;100.00
55679;BME280;41573;51.446;-2.018;2022-11-14T10:33:33;99953.38;;;13.05;100.00
55679;BME280;41573;51.446;-2.018;2022-11-14T10:36:06;99955.69;;;13.10;100.00
55679;BME280;41573;51.446;-2.018;2022-11-14T10:39:21;99943.59;;;13.27;100.00
55679;BME280;41573;51.446;-2.018;2022-11-14T10:41:21;99939.81;;;13.52;100.00
55679;BME280;41573;51.446;-2.018;2022-11-14T10:43:47;99933.19;;;13.68;100.00
55679;BME280;41573;51.446;-2.018;2022-11-14T10:48:42;99920.72;;;13.99;100.00
55679;BME280;41573;51.446;-2.018;2022-11-14T10:53:54;99902.47;;;14.35;100.00
55679;BME280;41573;51.446;-2.018;2022-11-14T10:56:19;99894.19;;;14.48;100.00
55679;BME280;41573;51.446;-2.018;2022-11-14T10:58:45;99889.88;;;14.57;100.00
55679;BME280;41573;51.446;-2.018;2022-11-14T11:03:54;99861.88;;;14.71;100.00
55679;BME280;41573;51.446;-2.018;2022-11-14T11:06:23;99850.19;;;14.72;100.00
55679;BME280;41573;51.446;-2.018;2022-11-14T11:08:49;99843.56;;;14.76;100.00
55679;BME280;41573;51.446;-2.018;2022-11-14T11:11:32;99837.22;;;14.87;100.00
55679;BME280;41573;51.446;-2.018;2022-11-14T11:13:59;99827.25;;;14.98;100.00
55679;BME280;41573;51.446;-2.018;2022-11-14T11:16:25;99813.53;;;15.02;100.00
55679;BME280;41573;51.446;-2.018;2022-11-14T11:18:50;99823.16;;;15.14;100.00
55679;BME280;41573;51.446;-2.018;2022-11-14T11:21:20;99818.34;;;15.27;100.00
55679;BME280;41573;51.446;-2.018;2022-11-14T11:23:53;99803.38;;;15.34;100.00
55679;BME280;41573;51.446;-2.018;2022-11-14T11:26:22;99799.13;;;15.32;100.00
55679;BME280;41573;51.446;-2.018;2022-11-14T11:31:25;99802.97;;;15.10;100.00
55679;BME280;41573;51.446;-2.018;2022-11-14T11:33:50;99801.13;;;15.20;100.00
55679;BME280;41573;51.446;-2.018;2022-11-14T11:36:19;99787.56;;;15.12;100.00
55679;BME280;41573;51.446;-2.018;2022-11-14T11:38:47;99792.09;;;15.02;100.00
55679;BME280;41573;51.446;-2.018;2022-11-14T11:43:49;99800.97;;;14.82;100.00
55679;BME280;41573;51.446;-2.018;2022-11-14T11:47:00;99793.63;;;14.75;100.00
55679;BME280;41573;51.446;-2.018;2022-11-14T11:49:10;99795.75;;;14.71;100.00
55679;BME280;41573;51.446;-2.018;2022-11-14T11:51:39;99792.19;;;14.71;100.00
55679;BME280;41573;51.446;-2.018;2022-11-14T11:54:08;99792.19;;;14.71;100.00
55679;BME280;41573;51.446;-2.018;2022-11-14T11:56:37;99784.16;;;14.71;100.00
55679;BME280;41573;51.446;-2.018;2022-11-14T12:01:46;99781.91;;;14.76;100.00
55679;BME280;41573;51.446;-2.018;2022-11-14T12:04:12;99777.97;;;14.80;100.00
55679;BME280;41573;51.446;-2.018;2022-11-14T12:06:40;99784.91;;;14.82;100.00
55679;BME280;41573;51.446;-2.018;2022-11-14T12:11:41;99776.41;;;14.77;100.00
55679;BME280;41573;51.446;-2.018;2022-11-14T12:25:21;99763.00;;;15.36;100.00
55679;BME280;41573;51.446;-2.018;2022-11-14T12:30:21;99751.25;;;15.57;100.00
55679;BME280;41573;51.446;-2.018;2022-11-14T12:32:49;99748.16;;;15.51;100.00
55679;BME280;41573;51.446;-2.018;2022-11-14T12:35:19;99732.06;;;15.42;100.00
55679;BME280;41573;51.446;-2.018;2022-11-14T12:37:46;99724.91;;;15.32;100.00
55679;BME280;41573;51.446;-2.018;2022-11-14T12:42:45;99712.19;;;15.15;100.00
55679;BME280;41573;51.446;-2.018;2022-11-14T12:50:40;99709.28;;;14.98;100.00
55679;BME280;41573;51.446;-2.018;2022-11-14T12:53:23;99707.13;;;15.02;100.00
55679;BME280;41573;51.446;-2.018;2022-11-14T12:59:04;99704.44;;;15.12;100.00
55679;BME280;41573;51.446;-2.018;2022-11-14T13:04:17;99699.53;;;15.07;100.00
55679;BME280;41573;51.446;-2.018;2022-11-14T13:09:30;99699.38;;;14.99;100.00
55679;BME280;41573;51.446;-2.018;2022-11-14T13:11:57;99698.69;;;14.97;100.00
55679;BME280;41573;51.446;-2.018;2022-11-14T13:14:51;99696.16;;;14.95;100.00
55679;BME280;41573;51.446;-2.018;2022-11-14T13:17:35;99693.03;;;14.90;100.00
55679;BME280;41573;51.446;-2.018;2022-11-14T13:36:10;99668.78;;;14.62;100.00
55679;BME280;41573;51.446;-2.018;2022-11-14T13:52:16;99654.13;;;14.67;100.00
55679;BME280;41573;51.446;-2.018;2022-11-14T13:54:46;99649.63;;;14.67;100.00
55679;BME280;41573;51.446;-2.018;2022-11-14T13:59:52;99650.16;;;14.71;100.00
55679;BME280;41573;51.446;-2.018;2022-11-14T14:05:15;99641.84;;;14.74;100.00
55679;BME280;41573;51.446;-2.018;2022-11-14T14:15:24;99631.00;;;14.75;100.00
55679;BME280;41573;51.446;-2.018;2022-11-14T14:17:54;99629.84;;;14.78;100.00
55679;BME280;41573;51.446;-2.018;2022-11-14T14:22:52;99621.13;;;14.76;100.00
55679;BME280;41573;51.446;-2.018;2022-11-14T14:27:59;99624.38;;;14.70;100.00
55679;BME280;41573;51.446;-2.018;2022-11-14T14:30:27;99615.91;;;14.64;100.00